Terminal Aerodrome Forecast
Issued by NWS

Current Version | Previous Version | Text Only | Print | Product List | Glossary Off
Versions: 1 2 3 4 5 6 7 8 9 10 11 12 13 14 15 16 17 18 19 20 21 22

000
FTUS41 KILN 131700
TAFLUK
TAF
KLUK 131740Z 1318/1418 20018G28KT P6SM SCT050 BKN150
     FM132200 20011G19KT P6SM SCT070 BKN150
     FM141000 21015G22KT P6SM VCSH BKN050 OVC150
     FM141200 21018G30KT P6SM -SHRA OVC060
     FM141400 21020G35KT P6SM -SHRA OVC060=

USA.gov is the U.S. government's official web portal to all federal, state and local government web resources and services.